createdAt,value
2023-02-19T00:02:54.346Z,8.25
2023-02-19T00:06:55.954Z,10.90
2023-02-19T00:11:05.516Z,10.32
2023-02-19T00:15:07.457Z,10.80
2023-02-19T00:19:13.278Z,10.18
2023-02-19T00:23:14.946Z,10.48
2023-02-19T00:27:16.586Z,10.48
2023-02-19T00:31:20.536Z,10.70
2023-02-19T00:35:22.555Z,10.38
2023-02-19T00:39:24.186Z,10.27
2023-02-19T00:43:25.921Z,11.48
2023-02-19T00:47:27.549Z,10.93
2023-02-19T00:51:32.133Z,10.93
2023-02-19T00:55:33.792Z,10.20
2023-02-19T00:59:36.734Z,10.70
2023-02-19T01:03:39.916Z,11.48
2023-02-19T01:07:41.590Z,12.30
2023-02-19T01:11:43.238Z,11.65
2023-02-19T01:15:45.148Z,11.55
2023-02-19T01:19:46.897Z,12.07
2023-02-19T01:23:50.224Z,12.90
2023-02-19T01:27:51.858Z,11.55
2023-02-19T01:31:53.554Z,12.82
2023-02-19T01:35:55.354Z,13.52
2023-02-19T01:39:57.152Z,12.20
2023-02-19T01:44:03.763Z,13.93
2023-02-19T01:48:19.491Z,13.68
2023-02-19T01:52:30.757Z,13.90
2023-02-19T01:56:35.951Z,12.43
2023-02-19T02:00:37.779Z,12.57
2023-02-19T02:04:39.467Z,13.70
2023-02-19T02:09:00.156Z,14.18
2023-02-19T02:13:02.030Z,15.00
2023-02-19T02:17:10.260Z,14.45
2023-02-19T02:21:14.630Z,14.60
2023-02-19T02:25:28.105Z,15.70
2023-02-19T02:30:06.523Z,15.77
2023-02-19T02:34:16.104Z,16.15
2023-02-19T02:38:20.515Z,16.45
2023-02-19T02:42:28.149Z,16.25
2023-02-19T02:46:38.193Z,16.70
2023-02-19T02:50:52.993Z,16.67
2023-02-19T02:55:03.653Z,17.17
2023-02-19T02:59:08.141Z,17.08
2023-02-19T03:03:09.946Z,17.92
2023-02-19T03:07:12.570Z,18.50
2023-02-19T03:11:33.417Z,18.30
2023-02-19T03:16:02.080Z,18.62
2023-02-19T03:20:09.357Z,15.05
2023-02-19T03:24:32.064Z,18.45
2023-02-19T03:28:56.571Z,18.42
2023-02-19T03:33:08.050Z,17.25
2023-02-19T03:37:27.169Z,17.45
2023-02-19T03:41:40.838Z,16.98
2023-02-19T03:46:08.263Z,16.62
2023-02-19T03:50:25.240Z,17.12
2023-02-19T03:54:43.649Z,16.17
2023-02-19T03:58:58.855Z,16.67
2023-02-19T04:03:06.061Z,17.35
2023-02-19T04:11:11.819Z,16.95
2023-02-19T04:15:20.504Z,17.30
2023-02-19T04:19:25.781Z,17.12
2023-02-19T04:23:30.539Z,17.95
2023-02-19T04:27:32.769Z,16.95
2023-02-19T04:31:36.268Z,18.90
2023-02-19T04:35:37.998Z,18.25
2023-02-19T04:39:39.634Z,18.25
2023-02-19T04:43:41.286Z,18.70
2023-02-19T04:47:42.934Z,18.37
2023-02-19T04:51:44.597Z,17.80
2023-02-19T04:55:47.957Z,17.70
2023-02-19T04:59:49.603Z,17.67
2023-02-19T05:03:51.901Z,17.00
2023-02-19T05:07:53.992Z,17.23
2023-02-19T05:11:55.607Z,16.27
2023-02-19T05:16:00.614Z,16.52
2023-02-19T05:20:02.301Z,14.87
2023-02-19T05:24:04.290Z,12.10
2023-02-19T05:28:17.997Z,13.55
2023-02-19T05:32:19.683Z,12.63
2023-02-19T05:36:21.848Z,12.13
2023-02-19T05:40:23.505Z,10.00
2023-02-19T05:44:25.727Z,10.48
2023-02-19T05:48:27.369Z,11.05
2023-02-19T05:52:28.974Z,10.40
2023-02-19T05:56:39.628Z,11.00
2023-02-19T06:00:41.254Z,10.95
2023-02-19T06:04:42.892Z,10.75
2023-02-19T06:08:45.099Z,11.73
2023-02-19T06:12:46.724Z,10.48
2023-02-19T06:16:48.382Z,10.10
2023-02-19T06:20:50.030Z,10.13
2023-02-19T06:24:51.668Z,9.10
2023-02-19T06:28:53.981Z,9.25
2023-02-19T06:32:55.662Z,8.27
2023-02-19T06:36:58.347Z,8.50
2023-02-19T06:41:04.943Z,7.68
2023-02-19T06:45:07.121Z,7.70
2023-02-19T06:49:08.827Z,7.35
2023-02-19T06:53:11.589Z,7.32
2023-02-19T06:57:13.278Z,7.72
2023-02-19T07:01:14.974Z,8.02
2023-02-19T07:05:16.701Z,8.20
2023-02-19T07:09:18.349Z,7.80
2023-02-19T07:13:19.929Z,7.93
2023-02-19T07:17:21.582Z,8.30
2023-02-19T07:21:23.559Z,8.15
2023-02-19T07:25:25.238Z,8.63
2023-02-19T07:29:26.867Z,8.70
2023-02-19T07:33:28.481Z,7.68
2023-02-19T07:37:30.103Z,8.50
2023-02-19T07:41:31.868Z,7.95
2023-02-19T07:45:33.501Z,8.13
2023-02-19T07:49:35.184Z,8.88
2023-02-19T07:53:36.828Z,9.00
2023-02-19T07:57:38.449Z,9.40
2023-02-19T08:01:58.686Z,9.23
2023-02-19T08:06:00.319Z,10.00
2023-02-19T08:10:21.825Z,9.65
2023-02-19T08:14:27.432Z,8.75
2023-02-19T08:18:31.719Z,9.48
2023-02-19T08:22:33.342Z,8.48
2023-02-19T08:26:35.478Z,8.18
2023-02-19T08:30:38.391Z,8.55
2023-02-19T08:34:40.122Z,8.00
2023-02-19T08:38:41.841Z,8.63
2023-02-19T08:42:43.573Z,9.23
2023-02-19T08:46:45.182Z,8.13
2023-02-19T08:50:56.897Z,9.40
2023-02-19T08:54:58.722Z,8.85
2023-02-19T08:59:00.664Z,8.15
2023-02-19T09:03:02.334Z,8.23
2023-02-19T09:07:07.600Z,8.73
2023-02-19T09:11:09.737Z,14.27
2023-02-19T09:15:12.360Z,7.60
2023-02-19T09:19:13.997Z,7.72
2023-02-19T09:23:15.629Z,7.22
2023-02-19T09:27:19.552Z,7.53
2023-02-19T09:31:21.286Z,6.87
2023-02-19T09:35:23.006Z,7.43
2023-02-19T09:39:24.688Z,6.70
2023-02-19T09:43:29.019Z,7.00
2023-02-19T09:47:32.706Z,7.18
2023-02-19T09:51:37.697Z,7.40
2023-02-19T09:55:42.350Z,6.78
2023-02-19T10:00:10.989Z,6.47
2023-02-19T10:04:12.590Z,6.07
2023-02-19T10:08:19.869Z,7.15
2023-02-19T10:16:28.070Z,6.45
2023-02-19T10:20:30.047Z,6.47
2023-02-19T10:24:32.277Z,6.40
2023-02-19T10:28:35.019Z,6.65
2023-02-19T10:32:36.723Z,6.45
2023-02-19T10:36:44.837Z,5.80
2023-02-19T10:40:47.145Z,6.28
2023-02-19T10:44:58.331Z,6.35
2023-02-19T10:49:06.161Z,5.60
2023-02-19T10:53:24.537Z,5.32
2023-02-19T10:57:30.398Z,6.18
2023-02-19T11:01:32.184Z,5.82
2023-02-19T11:05:34.895Z,5.25
2023-02-19T11:09:42.735Z,5.55
2023-02-19T11:13:44.427Z,5.75
2023-02-19T11:17:53.899Z,6.22
2023-02-19T11:21:56.494Z,6.30
2023-02-19T11:26:06.356Z,5.95
2023-02-19T11:30:30.251Z,5.95
2023-02-19T11:34:34.778Z,5.85
2023-02-19T11:38:36.458Z,6.10
2023-02-19T11:42:45.690Z,6.03
2023-02-19T11:47:01.192Z,3.87
2023-02-19T11:51:14.567Z,3.17
2023-02-19T11:55:53.548Z,3.40
2023-02-19T12:00:23.064Z,2.37
2023-02-19T12:04:58.259Z,1.60
2023-02-19T12:09:24.818Z,1.80
2023-02-19T12:13:58.392Z,2.08
2023-02-19T12:18:23.258Z,2.22
2023-02-19T12:22:30.952Z,2.67
2023-02-19T12:27:05.082Z,2.70
2023-02-19T12:31:35.138Z,2.75
2023-02-19T12:35:46.652Z,3.60
2023-02-19T12:40:25.760Z,4.40
2023-02-19T12:44:58.430Z,4.72
2023-02-19T12:49:06.906Z,4.93
2023-02-19T12:53:22.900Z,5.35
2023-02-19T12:57:28.977Z,5.15
2023-02-19T13:01:57.995Z,5.18
2023-02-19T13:06:04.138Z,5.20
2023-02-19T13:10:11.321Z,5.72
2023-02-19T13:14:45.012Z,5.15
2023-02-19T13:18:48.678Z,5.03
2023-02-19T13:23:19.245Z,5.28
2023-02-19T13:27:54.204Z,4.95
2023-02-19T13:32:17.438Z,4.82
2023-02-19T13:36:29.560Z,4.43
2023-02-19T13:40:37.350Z,5.72
2023-02-19T13:44:41.494Z,5.25
2023-02-19T13:48:44.354Z,5.32
2023-02-19T13:52:46.196Z,6.15
2023-02-19T13:56:48.414Z,6.22
2023-02-19T14:00:53.342Z,6.30
2023-02-19T14:04:59.901Z,6.60
2023-02-19T14:09:01.543Z,7.00
2023-02-19T14:13:03.206Z,6.78
2023-02-19T14:17:29.309Z,7.15
2023-02-19T14:21:43.269Z,7.20
2023-02-19T14:25:48.915Z,7.70
2023-02-19T14:29:50.889Z,7.90
2023-02-19T14:33:54.879Z,8.85
2023-02-19T14:37:57.800Z,9.77
2023-02-19T14:42:04.568Z,8.20
2023-02-19T14:46:14.633Z,8.38
2023-02-19T14:50:30.522Z,8.00
2023-02-19T14:55:01.105Z,8.05
2023-02-19T14:59:13.213Z,8.68
2023-02-19T15:03:28.896Z,8.50
2023-02-19T15:07:33.751Z,7.32
2023-02-19T15:11:35.870Z,8.88
2023-02-19T15:15:43.019Z,7.85
2023-02-19T15:23:46.450Z,7.47
2023-02-19T15:27:48.393Z,6.00
2023-02-19T15:31:54.139Z,4.82
2023-02-19T15:35:59.896Z,5.22
2023-02-19T15:40:07.217Z,5.75
2023-02-19T15:44:37.301Z,5.32
2023-02-19T15:48:51.038Z,5.03
2023-02-19T15:53:16.589Z,4.35
2023-02-19T15:57:24.938Z,4.18
2023-02-19T16:01:32.526Z,4.72
2023-02-19T16:05:39.752Z,5.25
2023-02-19T16:13:42.922Z,5.72
2023-02-19T16:17:44.986Z,6.60
2023-02-19T16:21:47.078Z,5.62
2023-02-19T16:25:48.774Z,6.03
2023-02-19T16:29:51.392Z,5.18
2023-02-19T16:33:53.026Z,4.43
2023-02-19T16:37:59.383Z,3.28
2023-02-19T16:42:01.990Z,2.60
2023-02-19T16:46:03.734Z,2.67
2023-02-19T16:50:14.074Z,1.42
2023-02-19T16:54:15.689Z,1.00
2023-02-19T16:58:17.725Z,1.12
2023-02-19T17:02:22.216Z,1.02
2023-02-19T17:06:23.925Z,1.40
2023-02-19T17:10:27.267Z,2.08
2023-02-19T17:14:28.880Z,3.20
2023-02-19T17:18:30.589Z,4.47
2023-02-19T17:22:32.207Z,5.15
2023-02-19T17:26:34.389Z,5.60
2023-02-19T17:30:37.766Z,5.50
2023-02-19T17:34:40.552Z,5.12
2023-02-19T17:38:42.186Z,5.22
2023-02-19T17:42:44.292Z,5.07
2023-02-19T17:46:48.021Z,5.68
2023-02-19T17:50:50.556Z,5.32
2023-02-19T17:54:52.154Z,5.15
2023-02-19T17:58:57.664Z,6.15
2023-02-19T18:02:59.346Z,5.72
2023-02-19T18:07:02.707Z,5.78
2023-02-19T18:11:06.967Z,5.68
2023-02-19T18:15:11.118Z,5.15
2023-02-19T18:19:12.921Z,4.57
2023-02-19T18:23:14.667Z,4.53
2023-02-19T18:27:16.802Z,4.00
2023-02-19T18:31:18.498Z,3.78
2023-02-19T18:35:21.285Z,3.80
2023-02-19T18:39:22.965Z,3.30
2023-02-19T18:43:24.617Z,4.10
2023-02-19T18:47:27.076Z,4.03
2023-02-19T18:51:28.730Z,4.68
2023-02-19T18:55:30.341Z,4.95
2023-02-19T18:59:32.390Z,5.40
2023-02-19T19:03:34.417Z,5.10
2023-02-19T19:07:36.115Z,3.70
2023-02-19T19:11:38.687Z,2.83
2023-02-19T19:15:41.263Z,2.53
2023-02-19T19:19:44.952Z,3.22
2023-02-19T19:23:47.412Z,3.60
2023-02-19T19:27:52.846Z,3.30
2023-02-19T19:31:54.611Z,3.10
2023-02-19T19:35:56.232Z,2.92
2023-02-19T19:39:57.948Z,2.55
2023-02-19T19:44:03.286Z,2.25
2023-02-19T19:48:05.183Z,1.85
2023-02-19T19:52:08.007Z,1.98
2023-02-19T19:56:09.643Z,1.87
2023-02-19T20:00:15.958Z,1.70
2023-02-19T20:04:19.738Z,1.73
2023-02-19T20:08:21.570Z,1.30
2023-02-19T20:12:23.200Z,1.50
2023-02-19T20:16:26.752Z,1.45
2023-02-19T20:20:29.553Z,1.20
2023-02-19T20:24:31.525Z,1.50
2023-02-19T20:28:34.005Z,1.23
2023-02-19T20:32:35.689Z,1.30
2023-02-19T20:36:43.084Z,1.12
2023-02-19T20:40:44.817Z,1.10
2023-02-19T20:44:46.430Z,0.90
2023-02-19T20:48:50.456Z,0.80
2023-02-19T20:52:53.449Z,0.90
2023-02-19T20:56:58.168Z,0.90
2023-02-19T21:00:59.808Z,1.48
2023-02-19T21:05:01.894Z,1.00
2023-02-19T21:09:04.201Z,1.10
2023-02-19T21:13:05.874Z,1.23
2023-02-19T21:17:07.512Z,1.42
2023-02-19T21:21:09.173Z,1.20
2023-02-19T21:25:11.064Z,1.23
2023-02-19T21:29:18.902Z,1.17
2023-02-19T21:33:20.523Z,1.60
2023-02-19T21:37:22.341Z,0.98
2023-02-19T21:41:28.038Z,1.58
2023-02-19T21:45:29.819Z,1.30
2023-02-19T21:49:31.686Z,1.33
2023-02-19T21:53:33.345Z,1.10
2023-02-19T21:57:35.006Z,1.65
2023-02-19T22:01:38.656Z,1.15
2023-02-19T22:05:40.333Z,1.30
2023-02-19T22:09:41.956Z,1.58
2023-02-19T22:13:43.629Z,1.55
2023-02-19T22:17:46.335Z,1.30
2023-02-19T22:21:47.984Z,1.80
2023-02-19T22:25:49.724Z,1.67
2023-02-19T22:29:51.382Z,1.40
2023-02-19T22:33:53.631Z,1.70
2023-02-19T22:37:55.313Z,1.70
2023-02-19T22:41:56.948Z,1.48
2023-02-19T22:45:58.571Z,1.40
2023-02-19T22:50:00.303Z,1.50
2023-02-19T22:54:01.947Z,1.60
2023-02-19T22:58:03.538Z,1.80
2023-02-19T23:02:05.126Z,1.60
2023-02-19T23:06:06.769Z,2.30
2023-02-19T23:10:09.384Z,1.80
2023-02-19T23:14:11.489Z,1.92
2023-02-19T23:18:13.126Z,1.67
2023-02-19T23:22:14.778Z,3.05
2023-02-19T23:26:16.958Z,2.83
2023-02-19T23:30:19.429Z,4.60
2023-02-19T23:34:21.871Z,4.85
2023-02-19T23:38:23.622Z,5.20
2023-02-19T23:42:25.524Z,5.55
2023-02-19T23:46:27.208Z,6.75
2023-02-19T23:50:28.867Z,7.80
2023-02-19T23:54:31.182Z,7.75
2023-02-19T23:58:33.125Z,7.85
